sensor_id;sensor_type;location;lat;lon;timestamp;P1;durP1;ratioP1;P2;durP2;ratioP2
50309;SDS011;36207;51.850;21.698;2022-09-24T00:01:23;19.00;;;12.60;;
50309;SDS011;36207;51.850;21.698;2022-09-24T00:03:51;18.80;;;12.10;;
50309;SDS011;36207;51.850;21.698;2022-09-24T00:06:39;16.90;;;11.80;;
50309;SDS011;36207;51.850;21.698;2022-09-24T00:09:07;18.70;;;11.30;;
50309;SDS011;36207;51.850;21.698;2022-09-24T00:11:34;19.50;;;11.80;;
50309;SDS011;36207;51.850;21.698;2022-09-24T00:14:00;19.00;;;11.80;;
50309;SDS011;36207;51.850;21.698;2022-09-24T00:16:27;17.40;;;11.70;;
50309;SDS011;36207;51.850;21.698;2022-09-24T00:18:58;21.60;;;12.50;;
50309;SDS011;36207;51.850;21.698;2022-09-24T00:21:26;16.90;;;11.10;;
50309;SDS011;36207;51.850;21.698;2022-09-24T00:23:55;16.60;;;10.90;;
50309;SDS011;36207;51.850;21.698;2022-09-24T00:26:24;19.80;;;11.30;;
50309;SDS011;36207;51.850;21.698;2022-09-24T00:29:09;16.80;;;10.70;;
50309;SDS011;36207;51.850;21.698;2022-09-24T00:31:37;18.90;;;11.20;;
50309;SDS011;36207;51.850;21.698;2022-09-24T00:34:04;16.60;;;10.90;;
50309;SDS011;36207;51.850;21.698;2022-09-24T00:36:30;17.10;;;10.70;;
50309;SDS011;36207;51.850;21.698;2022-09-24T00:38:58;17.10;;;10.90;;
50309;SDS011;36207;51.850;21.698;2022-09-24T00:41:26;16.00;;;10.60;;
50309;SDS011;36207;51.850;21.698;2022-09-24T00:43:55;19.00;;;11.80;;
50309;SDS011;36207;51.850;21.698;2022-09-24T00:49:14;18.10;;;11.20;;
50309;SDS011;36207;51.850;21.698;2022-09-24T00:51:44;17.40;;;11.20;;
50309;SDS011;36207;51.850;21.698;2022-09-24T00:54:19;17.40;;;11.10;;
50309;SDS011;36207;51.850;21.698;2022-09-24T00:56:51;19.70;;;11.70;;
50309;SDS011;36207;51.850;21.698;2022-09-24T00:59:19;18.90;;;11.30;;
50309;SDS011;36207;51.850;21.698;2022-09-24T01:01:48;17.30;;;11.10;;
50309;SDS011;36207;51.850;21.698;2022-09-24T01:04:16;18.10;;;10.80;;
50309;SDS011;36207;51.850;21.698;2022-09-24T01:06:50;21.60;;;10.80;;
50309;SDS011;36207;51.850;21.698;2022-09-24T01:09:17;18.30;;;11.70;;
50309;SDS011;36207;51.850;21.698;2022-09-24T01:25:31;19.20;;;11.90;;
50309;SDS011;36207;51.850;21.698;2022-09-24T01:31:09;22.00;;;11.70;;
50309;SDS011;36207;51.850;21.698;2022-09-24T01:33:43;18.00;;;11.30;;
50309;SDS011;36207;51.850;21.698;2022-09-24T01:36:14;15.30;;;10.70;;
50309;SDS011;36207;51.850;21.698;2022-09-24T01:38:43;19.50;;;11.30;;
50309;SDS011;36207;51.850;21.698;2022-09-24T01:41:12;16.90;;;11.70;;
50309;SDS011;36207;51.850;21.698;2022-09-24T01:43:42;17.20;;;11.10;;
50309;SDS011;36207;51.850;21.698;2022-09-24T01:46:09;20.40;;;12.00;;
50309;SDS011;36207;51.850;21.698;2022-09-24T01:48:37;19.50;;;11.90;;
50309;SDS011;36207;51.850;21.698;2022-09-24T01:51:12;21.30;;;12.30;;
50309;SDS011;36207;51.850;21.698;2022-09-24T01:53:41;19.90;;;11.70;;
50309;SDS011;36207;51.850;21.698;2022-09-24T01:56:14;15.80;;;10.60;;
50309;SDS011;36207;51.850;21.698;2022-09-24T01:58:49;19.40;;;11.00;;
50309;SDS011;36207;51.850;21.698;2022-09-24T02:01:21;18.10;;;11.20;;
50309;SDS011;36207;51.850;21.698;2022-09-24T02:03:56;17.30;;;11.20;;
50309;SDS011;36207;51.850;21.698;2022-09-24T02:06:36;18.20;;;11.40;;
50309;SDS011;36207;51.850;21.698;2022-09-24T02:11:56;20.30;;;10.90;;
50309;SDS011;36207;51.850;21.698;2022-09-24T02:14:27;18.20;;;10.70;;
50309;SDS011;36207;51.850;21.698;2022-09-24T02:16:57;16.10;;;9.30;;
50309;SDS011;36207;51.850;21.698;2022-09-24T02:19:27;16.00;;;10.60;;
50309;SDS011;36207;51.850;21.698;2022-09-24T02:21:56;15.20;;;10.00;;
50309;SDS011;36207;51.850;21.698;2022-09-24T02:24:28;19.60;;;11.40;;
50309;SDS011;36207;51.850;21.698;2022-09-24T02:26:59;22.00;;;11.70;;
50309;SDS011;36207;51.850;21.698;2022-09-24T02:29:26;20.10;;;11.90;;
50309;SDS011;36207;51.850;21.698;2022-09-24T02:31:53;19.70;;;10.90;;
50309;SDS011;36207;51.850;21.698;2022-09-24T02:34:40;17.60;;;11.00;;
50309;SDS011;36207;51.850;21.698;2022-09-24T02:37:16;18.40;;;11.10;;
50309;SDS011;36207;51.850;21.698;2022-09-24T02:39:45;19.30;;;11.90;;
50309;SDS011;36207;51.850;21.698;2022-09-24T02:42:11;18.00;;;10.50;;
50309;SDS011;36207;51.850;21.698;2022-09-24T02:44:38;15.60;;;10.20;;
50309;SDS011;36207;51.850;21.698;2022-09-24T02:47:05;17.20;;;10.70;;
50309;SDS011;36207;51.850;21.698;2022-09-24T02:49:31;18.10;;;10.60;;
50309;SDS011;36207;51.850;21.698;2022-09-24T02:51:58;19.30;;;11.10;;
50309;SDS011;36207;51.850;21.698;2022-09-24T02:54:24;20.10;;;11.20;;
50309;SDS011;36207;51.850;21.698;2022-09-24T02:56:50;17.70;;;11.40;;
50309;SDS011;36207;51.850;21.698;2022-09-24T02:59:17;17.40;;;10.80;;
50309;SDS011;36207;51.850;21.698;2022-09-24T03:01:44;19.90;;;11.40;;
50309;SDS011;36207;51.850;21.698;2022-09-24T03:04:11;16.80;;;11.40;;
50309;SDS011;36207;51.850;21.698;2022-09-24T03:06:38;17.50;;;11.50;;
50309;SDS011;36207;51.850;21.698;2022-09-24T03:09:05;19.50;;;11.60;;
50309;SDS011;36207;51.850;21.698;2022-09-24T03:11:31;17.80;;;11.30;;
50309;SDS011;36207;51.850;21.698;2022-09-24T03:13:58;15.60;;;10.70;;
50309;SDS011;36207;51.850;21.698;2022-09-24T03:16:24;19.20;;;11.50;;
50309;SDS011;36207;51.850;21.698;2022-09-24T03:18:51;21.10;;;12.30;;
50309;SDS011;36207;51.850;21.698;2022-09-24T03:21:18;17.50;;;10.90;;
50309;SDS011;36207;51.850;21.698;2022-09-24T03:23:45;16.70;;;10.70;;
50309;SDS011;36207;51.850;21.698;2022-09-24T03:26:11;17.00;;;10.60;;
50309;SDS011;36207;51.850;21.698;2022-09-24T03:28:39;17.90;;;11.10;;
50309;SDS011;36207;51.850;21.698;2022-09-24T03:31:06;17.00;;;10.90;;
50309;SDS011;36207;51.850;21.698;2022-09-24T03:36:10;18.20;;;11.00;;
50309;SDS011;36207;51.850;21.698;2022-09-24T03:38:38;15.10;;;10.00;;
50309;SDS011;36207;51.850;21.698;2022-09-24T03:41:06;16.20;;;10.20;;
50309;SDS011;36207;51.850;21.698;2022-09-24T03:43:33;17.80;;;11.00;;
50309;SDS011;36207;51.850;21.698;2022-09-24T03:46:00;18.90;;;11.00;;
50309;SDS011;36207;51.850;21.698;2022-09-24T03:48:27;18.80;;;11.50;;
50309;SDS011;36207;51.850;21.698;2022-09-24T03:50:55;18.50;;;11.40;;
50309;SDS011;36207;51.850;21.698;2022-09-24T03:53:21;16.40;;;10.70;;
50309;SDS011;36207;51.850;21.698;2022-09-24T03:55:53;18.00;;;10.70;;
50309;SDS011;36207;51.850;21.698;2022-09-24T03:58:21;20.30;;;11.80;;
50309;SDS011;36207;51.850;21.698;2022-09-24T04:00:49;17.20;;;11.10;;
50309;SDS011;36207;51.850;21.698;2022-09-24T04:03:19;16.30;;;11.00;;
50309;SDS011;36207;51.850;21.698;2022-09-24T04:05:47;18.20;;;12.00;;
50309;SDS011;36207;51.850;21.698;2022-09-24T04:08:16;19.80;;;12.10;;
50309;SDS011;36207;51.850;21.698;2022-09-24T04:10:44;20.30;;;11.90;;
50309;SDS011;36207;51.850;21.698;2022-09-24T04:13:11;17.80;;;11.00;;
50309;SDS011;36207;51.850;21.698;2022-09-24T04:15:37;16.30;;;10.90;;
50309;SDS011;36207;51.850;21.698;2022-09-24T04:18:04;18.90;;;11.40;;
50309;SDS011;36207;51.850;21.698;2022-09-24T04:20:30;16.40;;;11.00;;
50309;SDS011;36207;51.850;21.698;2022-09-24T04:22:57;18.30;;;11.40;;
50309;SDS011;36207;51.850;21.698;2022-09-24T04:25:26;16.70;;;11.20;;
50309;SDS011;36207;51.850;21.698;2022-09-24T04:28:02;19.90;;;11.40;;
50309;SDS011;36207;51.850;21.698;2022-09-24T04:30:31;18.90;;;11.90;;
50309;SDS011;36207;51.850;21.698;2022-09-24T04:32:58;14.90;;;10.90;;
50309;SDS011;36207;51.850;21.698;2022-09-24T04:35:26;19.80;;;12.00;;
50309;SDS011;36207;51.850;21.698;2022-09-24T04:37:54;18.60;;;11.60;;
50309;SDS011;36207;51.850;21.698;2022-09-24T04:40:21;16.10;;;10.50;;
50309;SDS011;36207;51.850;21.698;2022-09-24T04:42:47;16.60;;;11.10;;
50309;SDS011;36207;51.850;21.698;2022-09-24T04:45:14;16.40;;;11.10;;
50309;SDS011;36207;51.850;21.698;2022-09-24T04:47:44;20.70;;;12.60;;
50309;SDS011;36207;51.850;21.698;2022-09-24T04:50:12;21.20;;;12.30;;
50309;SDS011;36207;51.850;21.698;2022-09-24T04:52:38;19.10;;;12.00;;
50309;SDS011;36207;51.850;21.698;2022-09-24T04:55:04;16.60;;;11.30;;
50309;SDS011;36207;51.850;21.698;2022-09-24T04:57:31;19.80;;;11.40;;
50309;SDS011;36207;51.850;21.698;2022-09-24T04:59:59;19.70;;;11.90;;
50309;SDS011;36207;51.850;21.698;2022-09-24T05:02:25;17.70;;;12.10;;
50309;SDS011;36207;51.850;21.698;2022-09-24T05:04:51;22.20;;;12.00;;
50309;SDS011;36207;51.850;21.698;2022-09-24T05:07:18;19.00;;;12.50;;
50309;SDS011;36207;51.850;21.698;2022-09-24T05:09:44;19.90;;;12.10;;
50309;SDS011;36207;51.850;21.698;2022-09-24T05:12:10;19.50;;;12.20;;
50309;SDS011;36207;51.850;21.698;2022-09-24T05:14:36;18.60;;;11.90;;
50309;SDS011;36207;51.850;21.698;2022-09-24T05:17:02;18.60;;;12.10;;
50309;SDS011;36207;51.850;21.698;2022-09-24T05:19:28;20.10;;;12.20;;
50309;SDS011;36207;51.850;21.698;2022-09-24T05:21:54;20.20;;;12.70;;
50309;SDS011;36207;51.850;21.698;2022-09-24T05:24:21;21.20;;;13.00;;
50309;SDS011;36207;51.850;21.698;2022-09-24T05:26:47;20.20;;;12.60;;
50309;SDS011;36207;51.850;21.698;2022-09-24T05:29:32;21.10;;;12.20;;
50309;SDS011;36207;51.850;21.698;2022-09-24T05:31:58;21.30;;;12.50;;
50309;SDS011;36207;51.850;21.698;2022-09-24T05:34:27;24.70;;;13.10;;
50309;SDS011;36207;51.850;21.698;2022-09-24T05:36:53;23.40;;;13.00;;
50309;SDS011;36207;51.850;21.698;2022-09-24T05:39:19;22.60;;;13.30;;
50309;SDS011;36207;51.850;21.698;2022-09-24T05:41:46;20.30;;;13.70;;
50309;SDS011;36207;51.850;21.698;2022-09-24T05:44:12;23.10;;;13.40;;
50309;SDS011;36207;51.850;21.698;2022-09-24T05:46:38;20.60;;;12.70;;
50309;SDS011;36207;51.850;21.698;2022-09-24T05:49:04;19.80;;;13.00;;
50309;SDS011;36207;51.850;21.698;2022-09-24T05:51:30;24.20;;;13.90;;
50309;SDS011;36207;51.850;21.698;2022-09-24T05:53:56;21.40;;;13.50;;
50309;SDS011;36207;51.850;21.698;2022-09-24T05:56:23;19.90;;;12.90;;
50309;SDS011;36207;51.850;21.698;2022-09-24T05:58:49;19.10;;;12.80;;
50309;SDS011;36207;51.850;21.698;2022-09-24T06:01:15;23.40;;;14.10;;
50309;SDS011;36207;51.850;21.698;2022-09-24T06:03:42;21.10;;;13.40;;
50309;SDS011;36207;51.850;21.698;2022-09-24T06:06:08;20.60;;;13.00;;
50309;SDS011;36207;51.850;21.698;2022-09-24T06:08:34;22.40;;;13.80;;
50309;SDS011;36207;51.850;21.698;2022-09-24T06:11:01;22.00;;;14.40;;
50309;SDS011;36207;51.850;21.698;2022-09-24T06:13:30;22.70;;;15.00;;
50309;SDS011;36207;51.850;21.698;2022-09-24T06:16:01;23.70;;;14.20;;
50309;SDS011;36207;51.850;21.698;2022-09-24T06:18:29;26.20;;;14.40;;
50309;SDS011;36207;51.850;21.698;2022-09-24T06:20:59;22.90;;;13.70;;
50309;SDS011;36207;51.850;21.698;2022-09-24T06:23:27;21.60;;;13.70;;
50309;SDS011;36207;51.850;21.698;2022-09-24T06:25:53;26.20;;;15.30;;
50309;SDS011;36207;51.850;21.698;2022-09-24T06:28:20;25.20;;;16.00;;
50309;SDS011;36207;51.850;21.698;2022-09-24T06:30:46;24.90;;;16.40;;
50309;SDS011;36207;51.850;21.698;2022-09-24T06:33:12;28.80;;;18.30;;
50309;SDS011;36207;51.850;21.698;2022-09-24T06:35:39;30.90;;;20.20;;
50309;SDS011;36207;51.850;21.698;2022-09-24T06:38:09;37.10;;;22.00;;
50309;SDS011;36207;51.850;21.698;2022-09-24T06:40:37;44.40;;;24.80;;
50309;SDS011;36207;51.850;21.698;2022-09-24T06:43:05;47.40;;;26.00;;
50309;SDS011;36207;51.850;21.698;2022-09-24T06:45:32;34.00;;;20.60;;
50309;SDS011;36207;51.850;21.698;2022-09-24T06:48:00;29.90;;;20.60;;
50309;SDS011;36207;51.850;21.698;2022-09-24T06:50:27;29.30;;;18.70;;
50309;SDS011;36207;51.850;21.698;2022-09-24T06:52:55;27.80;;;17.80;;
50309;SDS011;36207;51.850;21.698;2022-09-24T06:55:23;29.00;;;17.90;;
50309;SDS011;36207;51.850;21.698;2022-09-24T06:57:49;24.80;;;18.20;;
50309;SDS011;36207;51.850;21.698;2022-09-24T07:00:25;26.80;;;17.60;;
50309;SDS011;36207;51.850;21.698;2022-09-24T07:02:51;29.80;;;17.30;;
50309;SDS011;36207;51.850;21.698;2022-09-24T07:05:17;24.30;;;17.30;;
50309;SDS011;36207;51.850;21.698;2022-09-24T07:07:43;22.90;;;17.00;;
50309;SDS011;36207;51.850;21.698;2022-09-24T07:10:10;23.80;;;16.20;;
50309;SDS011;36207;51.850;21.698;2022-09-24T07:12:36;19.40;;;14.20;;
50309;SDS011;36207;51.850;21.698;2022-09-24T07:15:02;19.20;;;14.20;;
50309;SDS011;36207;51.850;21.698;2022-09-24T07:17:29;19.50;;;14.50;;
50309;SDS011;36207;51.850;21.698;2022-09-24T07:19:55;17.10;;;12.40;;
50309;SDS011;36207;51.850;21.698;2022-09-24T07:22:21;18.00;;;13.30;;
50309;SDS011;36207;51.850;21.698;2022-09-24T07:24:48;23.50;;;14.00;;
50309;SDS011;36207;51.850;21.698;2022-09-24T07:27:14;19.70;;;13.20;;
50309;SDS011;36207;51.850;21.698;2022-09-24T07:29:41;19.10;;;14.10;;
50309;SDS011;36207;51.850;21.698;2022-09-24T07:32:07;19.10;;;12.80;;
50309;SDS011;36207;51.850;21.698;2022-09-24T07:34:33;16.90;;;12.50;;
50309;SDS011;36207;51.850;21.698;2022-09-24T07:36:59;13.60;;;10.50;;
50309;SDS011;36207;51.850;21.698;2022-09-24T07:39:26;13.80;;;10.10;;
50309;SDS011;36207;51.850;21.698;2022-09-24T07:41:52;14.00;;;9.60;;
50309;SDS011;36207;51.850;21.698;2022-09-24T07:44:19;11.90;;;8.40;;
50309;SDS011;36207;51.850;21.698;2022-09-24T07:46:50;13.10;;;9.80;;
50309;SDS011;36207;51.850;21.698;2022-09-24T07:49:17;18.30;;;11.80;;
50309;SDS011;36207;51.850;21.698;2022-09-24T07:51:43;16.30;;;10.30;;
50309;SDS011;36207;51.850;21.698;2022-09-24T07:54:10;13.40;;;9.90;;
50309;SDS011;36207;51.850;21.698;2022-09-24T07:56:36;14.50;;;9.60;;
50309;SDS011;36207;51.850;21.698;2022-09-24T07:59:04;14.90;;;9.80;;
50309;SDS011;36207;51.850;21.698;2022-09-24T08:01:31;13.10;;;9.50;;
50309;SDS011;36207;51.850;21.698;2022-09-24T08:03:59;11.20;;;7.90;;
50309;SDS011;36207;51.850;21.698;2022-09-24T08:06:26;9.90;;;7.20;;
50309;SDS011;36207;51.850;21.698;2022-09-24T08:08:53;12.00;;;7.90;;
50309;SDS011;36207;51.850;21.698;2022-09-24T08:11:20;11.80;;;7.80;;
50309;SDS011;36207;51.850;21.698;2022-09-24T08:13:47;11.20;;;7.90;;
50309;SDS011;36207;51.850;21.698;2022-09-24T08:16:13;9.90;;;6.70;;
50309;SDS011;36207;51.850;21.698;2022-09-24T08:18:41;9.80;;;6.90;;
50309;SDS011;36207;51.850;21.698;2022-09-24T08:21:09;12.00;;;6.90;;
50309;SDS011;36207;51.850;21.698;2022-09-24T08:23:37;10.50;;;7.40;;
50309;SDS011;36207;51.850;21.698;2022-09-24T08:26:05;9.80;;;6.60;;
50309;SDS011;36207;51.850;21.698;2022-09-24T08:28:31;10.80;;;6.80;;
50309;SDS011;36207;51.850;21.698;2022-09-24T08:30:58;11.10;;;6.80;;
50309;SDS011;36207;51.850;21.698;2022-09-24T08:33:26;9.80;;;6.70;;
50309;SDS011;36207;51.850;21.698;2022-09-24T08:35:52;11.50;;;6.90;;
50309;SDS011;36207;51.850;21.698;2022-09-24T08:38:18;9.90;;;6.40;;
50309;SDS011;36207;51.850;21.698;2022-09-24T08:47:12;9.20;;;5.70;;
50309;SDS011;36207;51.850;21.698;2022-09-24T08:50:11;8.10;;;5.10;;
50309;SDS011;36207;51.850;21.698;2022-09-24T08:52:49;11.30;;;4.70;;
50309;SDS011;36207;51.850;21.698;2022-09-24T08:55:35;7.20;;;4.40;;
50309;SDS011;36207;51.850;21.698;2022-09-24T09:01:02;6.40;;;4.40;;
50309;SDS011;36207;51.850;21.698;2022-09-24T09:09:19;7.00;;;4.90;;
50309;SDS011;36207;51.850;21.698;2022-09-24T09:11:49;8.50;;;4.90;;
50309;SDS011;36207;51.850;21.698;2022-09-24T09:17:19;7.90;;;4.70;;
50309;SDS011;36207;51.850;21.698;2022-09-24T09:19:56;7.50;;;5.30;;
50309;SDS011;36207;51.850;21.698;2022-09-24T09:22:28;12.00;;;5.10;;
50309;SDS011;36207;51.850;21.698;2022-09-24T09:25:01;12.70;;;5.30;;
50309;SDS011;36207;51.850;21.698;2022-09-24T09:27:37;8.20;;;5.10;;
50309;SDS011;36207;51.850;21.698;2022-09-24T09:30:05;7.40;;;4.60;;
50309;SDS011;36207;51.850;21.698;2022-09-24T09:35:31;7.00;;;4.60;;
50309;SDS011;36207;51.850;21.698;2022-09-24T09:38:24;9.50;;;4.70;;
50309;SDS011;36207;51.850;21.698;2022-09-24T09:43:59;7.20;;;4.40;;
50309;SDS011;36207;51.850;21.698;2022-09-24T09:46:36;6.90;;;4.70;;
50309;SDS011;36207;51.850;21.698;2022-09-24T09:49:11;33.60;;;7.70;;
50309;SDS011;36207;51.850;21.698;2022-09-24T09:51:42;7.70;;;4.30;;
50309;SDS011;36207;51.850;21.698;2022-09-24T09:54:13;9.70;;;4.20;;
50309;SDS011;36207;51.850;21.698;2022-09-24T09:56:46;9.30;;;4.50;;
50309;SDS011;36207;51.850;21.698;2022-09-24T09:59:18;6.10;;;4.00;;
50309;SDS011;36207;51.850;21.698;2022-09-24T10:01:48;5.70;;;3.80;;
50309;SDS011;36207;51.850;21.698;2022-09-24T10:07:10;7.40;;;4.30;;
50309;SDS011;36207;51.850;21.698;2022-09-24T10:09:37;5.50;;;4.20;;
50309;SDS011;36207;51.850;21.698;2022-09-24T10:14:56;5.90;;;4.10;;
50309;SDS011;36207;51.850;21.698;2022-09-24T10:17:26;5.90;;;3.90;;
50309;SDS011;36207;51.850;21.698;2022-09-24T10:19:55;6.00;;;3.40;;
50309;SDS011;36207;51.850;21.698;2022-09-24T10:22:23;6.40;;;3.90;;
50309;SDS011;36207;51.850;21.698;2022-09-24T10:24:51;4.10;;;3.30;;
50309;SDS011;36207;51.850;21.698;2022-09-24T10:27:30;5.40;;;3.50;;
50309;SDS011;36207;51.850;21.698;2022-09-24T10:30:11;6.70;;;4.20;;
50309;SDS011;36207;51.850;21.698;2022-09-24T10:32:59;9.10;;;4.30;;
50309;SDS011;36207;51.850;21.698;2022-09-24T10:35:32;5.50;;;3.80;;
50309;SDS011;36207;51.850;21.698;2022-09-24T10:38:01;8.30;;;3.90;;
50309;SDS011;36207;51.850;21.698;2022-09-24T10:40:39;5.50;;;4.10;;
50309;SDS011;36207;51.850;21.698;2022-09-24T10:43:06;5.10;;;3.90;;
50309;SDS011;36207;51.850;21.698;2022-09-24T10:48:26;8.10;;;3.80;;
50309;SDS011;36207;51.850;21.698;2022-09-24T10:53:52;10.00;;;4.80;;
50309;SDS011;36207;51.850;21.698;2022-09-24T10:56:40;5.00;;;2.80;;
50309;SDS011;36207;51.850;21.698;2022-09-24T11:02:00;3.50;;;3.00;;
50309;SDS011;36207;51.850;21.698;2022-09-24T11:04:57;5.00;;;3.00;;
50309;SDS011;36207;51.850;21.698;2022-09-24T11:13:17;7.10;;;3.30;;
50309;SDS011;36207;51.850;21.698;2022-09-24T11:18:53;2.50;;;2.10;;
50309;SDS011;36207;51.850;21.698;2022-09-24T11:24:19;4.50;;;2.30;;
50309;SDS011;36207;51.850;21.698;2022-09-24T11:27:04;19.80;;;4.30;;
50309;SDS011;36207;51.850;21.698;2022-09-24T11:38:34;4.80;;;2.90;;
50309;SDS011;36207;51.850;21.698;2022-09-24T11:41:53;23.30;;;4.70;;
50309;SDS011;36207;51.850;21.698;2022-09-24T11:44:01;8.30;;;2.30;;
50309;SDS011;36207;51.850;21.698;2022-09-24T11:57:12;3.40;;;2.00;;
50309;SDS011;36207;51.850;21.698;2022-09-24T12:02:26;2.60;;;2.10;;
50309;SDS011;36207;51.850;21.698;2022-09-24T12:05:16;2.30;;;1.90;;
50309;SDS011;36207;51.850;21.698;2022-09-24T12:07:53;2.00;;;1.80;;
50309;SDS011;36207;51.850;21.698;2022-09-24T12:12:59;3.20;;;1.80;;
50309;SDS011;36207;51.850;21.698;2022-09-24T12:15:56;3.80;;;1.80;;
50309;SDS011;36207;51.850;21.698;2022-09-24T12:18:26;5.00;;;1.90;;
50309;SDS011;36207;51.850;21.698;2022-09-24T12:21:05;2.20;;;1.60;;
50309;SDS011;36207;51.850;21.698;2022-09-24T12:23:38;2.40;;;2.00;;
50309;SDS011;36207;51.850;21.698;2022-09-24T12:26:07;2.30;;;1.80;;
50309;SDS011;36207;51.850;21.698;2022-09-24T12:28:38;3.10;;;1.80;;
50309;SDS011;36207;51.850;21.698;2022-09-24T12:39:28;3.10;;;2.30;;
50309;SDS011;36207;51.850;21.698;2022-09-24T12:42:10;2.40;;;2.00;;
50309;SDS011;36207;51.850;21.698;2022-09-24T12:44:44;3.10;;;2.20;;
50309;SDS011;36207;51.850;21.698;2022-09-24T12:47:26;3.10;;;2.00;;
50309;SDS011;36207;51.850;21.698;2022-09-24T12:49:57;2.50;;;2.00;;
50309;SDS011;36207;51.850;21.698;2022-09-24T12:52:34;2.90;;;2.20;;
50309;SDS011;36207;51.850;21.698;2022-09-24T12:55:04;4.90;;;3.30;;
50309;SDS011;36207;51.850;21.698;2022-09-24T12:57:48;2.40;;;2.20;;
50309;SDS011;36207;51.850;21.698;2022-09-24T13:00:33;6.80;;;2.80;;
50309;SDS011;36207;51.850;21.698;2022-09-24T13:03:03;15.60;;;2.90;;
50309;SDS011;36207;51.850;21.698;2022-09-24T13:10:59;3.00;;;2.60;;
50309;SDS011;36207;51.850;21.698;2022-09-24T13:13:31;2.60;;;2.30;;
50309;SDS011;36207;51.850;21.698;2022-09-24T13:16:17;3.30;;;2.60;;
50309;SDS011;36207;51.850;21.698;2022-09-24T13:18:58;2.60;;;2.20;;
50309;SDS011;36207;51.850;21.698;2022-09-24T13:21:27;3.70;;;2.80;;
50309;SDS011;36207;51.850;21.698;2022-09-24T13:23:56;3.40;;;2.40;;
50309;SDS011;36207;51.850;21.698;2022-09-24T13:28:55;3.50;;;3.00;;
50309;SDS011;36207;51.850;21.698;2022-09-24T13:33:53;6.70;;;3.10;;
50309;SDS011;36207;51.850;21.698;2022-09-24T13:36:27;4.20;;;3.10;;
50309;SDS011;36207;51.850;21.698;2022-09-24T13:38:57;4.00;;;3.20;;
50309;SDS011;36207;51.850;21.698;2022-09-24T13:44:34;5.00;;;3.40;;
50309;SDS011;36207;51.850;21.698;2022-09-24T13:50:14;4.30;;;3.10;;
50309;SDS011;36207;51.850;21.698;2022-09-24T13:52:53;7.70;;;3.70;;
50309;SDS011;36207;51.850;21.698;2022-09-24T13:55:30;5.10;;;3.60;;
50309;SDS011;36207;51.850;21.698;2022-09-24T13:57:59;5.00;;;3.50;;
50309;SDS011;36207;51.850;21.698;2022-09-24T14:00:26;5.30;;;3.60;;
50309;SDS011;36207;51.850;21.698;2022-09-24T14:05:20;8.60;;;3.90;;
50309;SDS011;36207;51.850;21.698;2022-09-24T14:07:57;7.20;;;4.00;;
50309;SDS011;36207;51.850;21.698;2022-09-24T14:10:29;4.90;;;3.70;;
50309;SDS011;36207;51.850;21.698;2022-09-24T14:13:06;6.80;;;4.00;;
50309;SDS011;36207;51.850;21.698;2022-09-24T14:15:35;6.10;;;4.00;;
50309;SDS011;36207;51.850;21.698;2022-09-24T14:18:01;6.70;;;3.90;;
50309;SDS011;36207;51.850;21.698;2022-09-24T14:20:28;6.50;;;3.90;;
50309;SDS011;36207;51.850;21.698;2022-09-24T14:22:59;6.00;;;3.80;;
50309;SDS011;36207;51.850;21.698;2022-09-24T14:25:29;6.10;;;3.90;;
50309;SDS011;36207;51.850;21.698;2022-09-24T14:27:59;5.80;;;3.50;;
50309;SDS011;36207;51.850;21.698;2022-09-24T14:30:28;8.10;;;3.60;;
50309;SDS011;36207;51.850;21.698;2022-09-24T14:35:43;9.60;;;4.30;;
50309;SDS011;36207;51.850;21.698;2022-09-24T14:38:14;7.40;;;4.40;;
50309;SDS011;36207;51.850;21.698;2022-09-24T14:40:47;6.90;;;4.30;;
50309;SDS011;36207;51.850;21.698;2022-09-24T14:49:17;7.20;;;4.50;;
50309;SDS011;36207;51.850;21.698;2022-09-24T14:52:02;6.20;;;3.70;;
50309;SDS011;36207;51.850;21.698;2022-09-24T14:54:33;6.30;;;3.70;;
50309;SDS011;36207;51.850;21.698;2022-09-24T14:57:19;6.10;;;3.50;;
50309;SDS011;36207;51.850;21.698;2022-09-24T14:59:49;8.60;;;3.90;;
50309;SDS011;36207;51.850;21.698;2022-09-24T15:02:18;6.30;;;4.20;;
50309;SDS011;36207;51.850;21.698;2022-09-24T15:04:59;8.70;;;4.80;;
50309;SDS011;36207;51.850;21.698;2022-09-24T15:07:29;6.50;;;4.50;;
50309;SDS011;36207;51.850;21.698;2022-09-24T15:09:56;5.30;;;3.30;;
50309;SDS011;36207;51.850;21.698;2022-09-24T15:14:56;8.00;;;4.30;;
50309;SDS011;36207;51.850;21.698;2022-09-24T15:17:43;6.10;;;3.90;;
50309;SDS011;36207;51.850;21.698;2022-09-24T15:20:11;5.90;;;3.70;;
50309;SDS011;36207;51.850;21.698;2022-09-24T15:22:38;6.70;;;3.60;;
50309;SDS011;36207;51.850;21.698;2022-09-24T15:25:04;5.80;;;3.60;;
50309;SDS011;36207;51.850;21.698;2022-09-24T15:27:33;5.40;;;3.50;;
50309;SDS011;36207;51.850;21.698;2022-09-24T15:30:04;6.30;;;3.60;;
50309;SDS011;36207;51.850;21.698;2022-09-24T15:32:37;6.70;;;3.40;;
50309;SDS011;36207;51.850;21.698;2022-09-24T15:35:04;4.40;;;3.50;;
50309;SDS011;36207;51.850;21.698;2022-09-24T15:37:37;5.70;;;3.70;;
50309;SDS011;36207;51.850;21.698;2022-09-24T15:42:48;6.30;;;3.90;;
50309;SDS011;36207;51.850;21.698;2022-09-24T15:45:15;9.50;;;4.30;;
50309;SDS011;36207;51.850;21.698;2022-09-24T15:47:44;10.10;;;4.40;;
50309;SDS011;36207;51.850;21.698;2022-09-24T15:50:10;7.90;;;4.80;;
50309;SDS011;36207;51.850;21.698;2022-09-24T15:52:59;6.90;;;4.50;;
50309;SDS011;36207;51.850;21.698;2022-09-24T15:55:26;6.20;;;4.50;;
50309;SDS011;36207;51.850;21.698;2022-09-24T15:57:53;11.20;;;4.90;;
50309;SDS011;36207;51.850;21.698;2022-09-24T16:00:21;15.70;;;7.80;;
50309;SDS011;36207;51.850;21.698;2022-09-24T16:02:50;15.70;;;8.10;;
50309;SDS011;36207;51.850;21.698;2022-09-24T16:05:20;18.00;;;8.00;;
50309;SDS011;36207;51.850;21.698;2022-09-24T16:07:47;30.10;;;9.90;;
50309;SDS011;36207;51.850;21.698;2022-09-24T16:10:14;22.90;;;8.70;;
50309;SDS011;36207;51.850;21.698;2022-09-24T16:12:41;27.80;;;9.30;;
50309;SDS011;36207;51.850;21.698;2022-09-24T16:15:11;20.90;;;10.50;;
50309;SDS011;36207;51.850;21.698;2022-09-24T16:17:39;23.00;;;11.10;;
50309;SDS011;36207;51.850;21.698;2022-09-24T16:20:06;24.20;;;11.50;;
50309;SDS011;36207;51.850;21.698;2022-09-24T16:22:34;24.70;;;12.10;;
50309;SDS011;36207;51.850;21.698;2022-09-24T16:25:00;31.30;;;12.80;;
50309;SDS011;36207;51.850;21.698;2022-09-24T16:27:26;42.40;;;17.10;;
50309;SDS011;36207;51.850;21.698;2022-09-24T16:29:53;29.70;;;14.40;;
50309;SDS011;36207;51.850;21.698;2022-09-24T16:32:19;27.50;;;13.00;;
50309;SDS011;36207;51.850;21.698;2022-09-24T16:34:45;25.80;;;12.30;;
50309;SDS011;36207;51.850;21.698;2022-09-24T16:37:11;27.10;;;13.90;;
50309;SDS011;36207;51.850;21.698;2022-09-24T16:39:39;19.30;;;11.50;;
50309;SDS011;36207;51.850;21.698;2022-09-24T16:42:05;26.40;;;15.70;;
50309;SDS011;36207;51.850;21.698;2022-09-24T16:44:32;34.40;;;21.20;;
50309;SDS011;36207;51.850;21.698;2022-09-24T16:46:58;70.80;;;40.00;;
50309;SDS011;36207;51.850;21.698;2022-09-24T16:49:25;102.50;;;57.10;;
50309;SDS011;36207;51.850;21.698;2022-09-24T16:51:51;202.50;;;110.80;;
50309;SDS011;36207;51.850;21.698;2022-09-24T16:54:17;234.10;;;122.30;;
50309;SDS011;36207;51.850;21.698;2022-09-24T16:56:47;281.20;;;149.40;;